sensor_id;sensor_type;location;lat;lon;timestamp;P1;durP1;ratioP1;P2;durP2;ratioP2
3916;SDS011;1973;50.518;7.318;2023-04-15T00:00:55;3.27;;;1.90;;
3916;SDS011;1973;50.518;7.318;2023-04-15T00:03:23;2.87;;;1.50;;
3916;SDS011;1973;50.518;7.318;2023-04-15T00:05:50;5.07;;;1.40;;
3916;SDS011;1973;50.518;7.318;2023-04-15T00:08:17;4.07;;;1.77;;
3916;SDS011;1973;50.518;7.318;2023-04-15T00:10:43;3.40;;;1.70;;
3916;SDS011;1973;50.518;7.318;2023-04-15T00:13:11;3.70;;;1.80;;
3916;SDS011;1973;50.518;7.318;2023-04-15T00:15:38;3.67;;;1.77;;
3916;SDS011;1973;50.518;7.318;2023-04-15T00:18:04;5.73;;;1.70;;
3916;SDS011;1973;50.518;7.318;2023-04-15T00:20:32;6.20;;;1.97;;
3916;SDS011;1973;50.518;7.318;2023-04-15T00:23:00;5.27;;;2.60;;
3916;SDS011;1973;50.518;7.318;2023-04-15T00:25:27;2.37;;;1.60;;
3916;SDS011;1973;50.518;7.318;2023-04-15T00:27:54;5.20;;;1.83;;
3916;SDS011;1973;50.518;7.318;2023-04-15T00:30:21;8.13;;;1.60;;
3916;SDS011;1973;50.518;7.318;2023-04-15T00:32:47;3.10;;;1.80;;
3916;SDS011;1973;50.518;7.318;2023-04-15T00:35:14;8.80;;;1.80;;
3916;SDS011;1973;50.518;7.318;2023-04-15T00:37:41;2.20;;;1.70;;
3916;SDS011;1973;50.518;7.318;2023-04-15T00:40:11;4.50;;;1.70;;
3916;SDS011;1973;50.518;7.318;2023-04-15T00:42:38;4.50;;;1.63;;
3916;SDS011;1973;50.518;7.318;2023-04-15T00:45:05;3.43;;;1.53;;
3916;SDS011;1973;50.518;7.318;2023-04-15T00:47:34;2.83;;;1.70;;
3916;SDS011;1973;50.518;7.318;2023-04-15T00:50:02;3.70;;;2.10;;
3916;SDS011;1973;50.518;7.318;2023-04-15T00:52:30;3.60;;;1.80;;
3916;SDS011;1973;50.518;7.318;2023-04-15T00:54:57;4.27;;;1.80;;
3916;SDS011;1973;50.518;7.318;2023-04-15T00:57:24;2.87;;;1.40;;
3916;SDS011;1973;50.518;7.318;2023-04-15T00:59:52;3.13;;;1.80;;
3916;SDS011;1973;50.518;7.318;2023-04-15T01:02:19;3.13;;;1.80;;
3916;SDS011;1973;50.518;7.318;2023-04-15T01:04:45;2.80;;;1.70;;
3916;SDS011;1973;50.518;7.318;2023-04-15T01:07:12;2.93;;;1.43;;
3916;SDS011;1973;50.518;7.318;2023-04-15T01:09:39;3.23;;;1.70;;
3916;SDS011;1973;50.518;7.318;2023-04-15T01:12:06;3.57;;;1.90;;
3916;SDS011;1973;50.518;7.318;2023-04-15T01:14:37;3.23;;;1.60;;
3916;SDS011;1973;50.518;7.318;2023-04-15T01:17:03;5.50;;;1.73;;
3916;SDS011;1973;50.518;7.318;2023-04-15T01:19:30;3.20;;;1.43;;
3916;SDS011;1973;50.518;7.318;2023-04-15T01:24:32;5.57;;;1.80;;
3916;SDS011;1973;50.518;7.318;2023-04-15T01:26:59;2.33;;;1.70;;
3916;SDS011;1973;50.518;7.318;2023-04-15T01:29:25;3.00;;;1.77;;
3916;SDS011;1973;50.518;7.318;2023-04-15T01:31:53;3.13;;;1.50;;
3916;SDS011;1973;50.518;7.318;2023-04-15T01:34:21;2.50;;;1.60;;
3916;SDS011;1973;50.518;7.318;2023-04-15T01:36:47;4.63;;;2.13;;
3916;SDS011;1973;50.518;7.318;2023-04-15T01:39:14;4.43;;;1.70;;
3916;SDS011;1973;50.518;7.318;2023-04-15T01:41:41;3.30;;;1.70;;
3916;SDS011;1973;50.518;7.318;2023-04-15T01:44:07;2.73;;;1.90;;
3916;SDS011;1973;50.518;7.318;2023-04-15T01:46:34;4.57;;;2.00;;
3916;SDS011;1973;50.518;7.318;2023-04-15T01:49:01;7.80;;;2.10;;
3916;SDS011;1973;50.518;7.318;2023-04-15T01:51:27;5.63;;;2.40;;
3916;SDS011;1973;50.518;7.318;2023-04-15T01:53:54;3.33;;;1.80;;
3916;SDS011;1973;50.518;7.318;2023-04-15T01:56:22;5.47;;;1.77;;
3916;SDS011;1973;50.518;7.318;2023-04-15T01:58:51;2.03;;;1.30;;
3916;SDS011;1973;50.518;7.318;2023-04-15T02:01:18;5.10;;;2.07;;
3916;SDS011;1973;50.518;7.318;2023-04-15T02:03:45;3.57;;;1.83;;
3916;SDS011;1973;50.518;7.318;2023-04-15T02:06:13;4.70;;;1.87;;
3916;SDS011;1973;50.518;7.318;2023-04-15T02:08:40;5.20;;;2.00;;
3916;SDS011;1973;50.518;7.318;2023-04-15T02:11:06;3.30;;;1.90;;
3916;SDS011;1973;50.518;7.318;2023-04-15T02:13:33;3.97;;;1.70;;
3916;SDS011;1973;50.518;7.318;2023-04-15T02:15:59;4.00;;;2.17;;
3916;SDS011;1973;50.518;7.318;2023-04-15T02:18:26;4.10;;;1.83;;
3916;SDS011;1973;50.518;7.318;2023-04-15T02:20:52;4.63;;;1.90;;
3916;SDS011;1973;50.518;7.318;2023-04-15T02:23:19;5.80;;;2.23;;
3916;SDS011;1973;50.518;7.318;2023-04-15T02:25:45;2.60;;;1.70;;
3916;SDS011;1973;50.518;7.318;2023-04-15T02:28:19;3.40;;;2.20;;
3916;SDS011;1973;50.518;7.318;2023-04-15T02:30:46;3.80;;;1.80;;
3916;SDS011;1973;50.518;7.318;2023-04-15T02:33:18;6.70;;;1.90;;
3916;SDS011;1973;50.518;7.318;2023-04-15T02:35:46;2.97;;;1.90;;
3916;SDS011;1973;50.518;7.318;2023-04-15T02:38:13;5.00;;;2.10;;
3916;SDS011;1973;50.518;7.318;2023-04-15T02:40:41;3.60;;;1.80;;
3916;SDS011;1973;50.518;7.318;2023-04-15T02:43:08;2.83;;;2.27;;
3916;SDS011;1973;50.518;7.318;2023-04-15T02:45:34;3.53;;;1.83;;
3916;SDS011;1973;50.518;7.318;2023-04-15T02:48:01;2.70;;;1.90;;
3916;SDS011;1973;50.518;7.318;2023-04-15T02:50:31;5.50;;;2.20;;
3916;SDS011;1973;50.518;7.318;2023-04-15T02:52:58;5.00;;;2.13;;
3916;SDS011;1973;50.518;7.318;2023-04-15T02:55:27;3.57;;;1.87;;
3916;SDS011;1973;50.518;7.318;2023-04-15T02:57:54;3.23;;;2.00;;
3916;SDS011;1973;50.518;7.318;2023-04-15T03:00:20;5.90;;;1.90;;
3916;SDS011;1973;50.518;7.318;2023-04-15T03:02:47;4.30;;;1.80;;
3916;SDS011;1973;50.518;7.318;2023-04-15T03:05:17;4.83;;;2.10;;
3916;SDS011;1973;50.518;7.318;2023-04-15T03:07:44;3.83;;;2.47;;
3916;SDS011;1973;50.518;7.318;2023-04-15T03:10:10;5.53;;;2.07;;
3916;SDS011;1973;50.518;7.318;2023-04-15T03:12:37;3.80;;;2.00;;
3916;SDS011;1973;50.518;7.318;2023-04-15T03:15:03;3.30;;;1.40;;
3916;SDS011;1973;50.518;7.318;2023-04-15T03:17:30;3.47;;;1.90;;
3916;SDS011;1973;50.518;7.318;2023-04-15T03:19:56;4.47;;;1.90;;
3916;SDS011;1973;50.518;7.318;2023-04-15T03:22:23;6.13;;;2.30;;
3916;SDS011;1973;50.518;7.318;2023-04-15T03:24:50;6.93;;;2.67;;
3916;SDS011;1973;50.518;7.318;2023-04-15T03:27:16;3.63;;;2.23;;
3916;SDS011;1973;50.518;7.318;2023-04-15T03:29:43;7.10;;;2.07;;
3916;SDS011;1973;50.518;7.318;2023-04-15T03:32:09;6.30;;;2.73;;
3916;SDS011;1973;50.518;7.318;2023-04-15T03:34:37;4.53;;;1.70;;
3916;SDS011;1973;50.518;7.318;2023-04-15T03:37:04;3.33;;;2.30;;
3916;SDS011;1973;50.518;7.318;2023-04-15T03:39:30;4.07;;;1.80;;
3916;SDS011;1973;50.518;7.318;2023-04-15T03:41:57;4.13;;;1.90;;
3916;SDS011;1973;50.518;7.318;2023-04-15T03:44:27;3.70;;;2.10;;
3916;SDS011;1973;50.518;7.318;2023-04-15T03:46:53;3.97;;;1.90;;
3916;SDS011;1973;50.518;7.318;2023-04-15T03:49:20;4.80;;;2.23;;
3916;SDS011;1973;50.518;7.318;2023-04-15T03:51:48;2.70;;;1.63;;
3916;SDS011;1973;50.518;7.318;2023-04-15T03:54:14;5.43;;;2.03;;
3916;SDS011;1973;50.518;7.318;2023-04-15T03:56:41;5.83;;;1.90;;
3916;SDS011;1973;50.518;7.318;2023-04-15T03:59:07;3.90;;;2.80;;
3916;SDS011;1973;50.518;7.318;2023-04-15T04:01:34;3.63;;;2.17;;
3916;SDS011;1973;50.518;7.318;2023-04-15T04:04:00;6.50;;;3.00;;
3916;SDS011;1973;50.518;7.318;2023-04-15T04:06:27;3.80;;;2.10;;
3916;SDS011;1973;50.518;7.318;2023-04-15T04:08:53;3.43;;;2.40;;
3916;SDS011;1973;50.518;7.318;2023-04-15T04:11:21;5.93;;;2.90;;
3916;SDS011;1973;50.518;7.318;2023-04-15T04:13:47;3.70;;;2.07;;
3916;SDS011;1973;50.518;7.318;2023-04-15T04:16:13;4.43;;;2.10;;
3916;SDS011;1973;50.518;7.318;2023-04-15T04:18:40;5.87;;;2.63;;
3916;SDS011;1973;50.518;7.318;2023-04-15T04:21:06;3.90;;;2.20;;
3916;SDS011;1973;50.518;7.318;2023-04-15T04:23:33;7.77;;;2.30;;
3916;SDS011;1973;50.518;7.318;2023-04-15T04:25:59;3.13;;;1.90;;
3916;SDS011;1973;50.518;7.318;2023-04-15T04:28:26;5.70;;;2.30;;
3916;SDS011;1973;50.518;7.318;2023-04-15T04:30:52;4.90;;;2.30;;
3916;SDS011;1973;50.518;7.318;2023-04-15T04:33:19;5.23;;;2.30;;
3916;SDS011;1973;50.518;7.318;2023-04-15T04:35:45;3.90;;;2.37;;
3916;SDS011;1973;50.518;7.318;2023-04-15T04:38:12;3.40;;;2.43;;
3916;SDS011;1973;50.518;7.318;2023-04-15T04:40:38;6.40;;;2.90;;
3916;SDS011;1973;50.518;7.318;2023-04-15T04:43:05;4.73;;;2.50;;
3916;SDS011;1973;50.518;7.318;2023-04-15T04:45:31;7.90;;;2.50;;
3916;SDS011;1973;50.518;7.318;2023-04-15T04:47:58;4.30;;;2.50;;
3916;SDS011;1973;50.518;7.318;2023-04-15T04:50:24;3.43;;;2.60;;
3916;SDS011;1973;50.518;7.318;2023-04-15T04:52:51;5.03;;;2.37;;
3916;SDS011;1973;50.518;7.318;2023-04-15T04:55:17;7.23;;;3.00;;
3916;SDS011;1973;50.518;7.318;2023-04-15T04:57:44;3.30;;;2.57;;
3916;SDS011;1973;50.518;7.318;2023-04-15T05:00:10;6.43;;;2.47;;
3916;SDS011;1973;50.518;7.318;2023-04-15T05:02:37;7.47;;;3.97;;
3916;SDS011;1973;50.518;7.318;2023-04-15T05:05:04;5.40;;;2.57;;
3916;SDS011;1973;50.518;7.318;2023-04-15T05:07:31;4.37;;;2.57;;
3916;SDS011;1973;50.518;7.318;2023-04-15T05:09:58;5.93;;;2.93;;
3916;SDS011;1973;50.518;7.318;2023-04-15T05:12:24;6.70;;;2.93;;
3916;SDS011;1973;50.518;7.318;2023-04-15T05:14:51;9.83;;;3.90;;
3916;SDS011;1973;50.518;7.318;2023-04-15T05:17:17;7.93;;;3.43;;
3916;SDS011;1973;50.518;7.318;2023-04-15T05:19:44;15.00;;;7.30;;
3916;SDS011;1973;50.518;7.318;2023-04-15T05:22:10;18.53;;;8.70;;
3916;SDS011;1973;50.518;7.318;2023-04-15T05:24:37;15.60;;;9.20;;
3916;SDS011;1973;50.518;7.318;2023-04-15T05:27:03;20.97;;;8.90;;
3916;SDS011;1973;50.518;7.318;2023-04-15T05:29:29;18.70;;;9.73;;
3916;SDS011;1973;50.518;7.318;2023-04-15T05:31:56;13.77;;;8.53;;
3916;SDS011;1973;50.518;7.318;2023-04-15T05:34:22;11.90;;;7.30;;
3916;SDS011;1973;50.518;7.318;2023-04-15T05:36:49;10.40;;;7.23;;
3916;SDS011;1973;50.518;7.318;2023-04-15T05:39:15;13.80;;;7.20;;
3916;SDS011;1973;50.518;7.318;2023-04-15T05:41:42;13.70;;;8.13;;
3916;SDS011;1973;50.518;7.318;2023-04-15T05:44:08;11.63;;;7.63;;
3916;SDS011;1973;50.518;7.318;2023-04-15T05:46:34;10.67;;;7.03;;
3916;SDS011;1973;50.518;7.318;2023-04-15T05:49:01;12.23;;;7.87;;
3916;SDS011;1973;50.518;7.318;2023-04-15T05:51:28;9.00;;;6.90;;
3916;SDS011;1973;50.518;7.318;2023-04-15T05:53:54;6.47;;;4.40;;
3916;SDS011;1973;50.518;7.318;2023-04-15T05:56:21;10.03;;;5.50;;
3916;SDS011;1973;50.518;7.318;2023-04-15T05:58:47;8.30;;;5.43;;
3916;SDS011;1973;50.518;7.318;2023-04-15T06:01:14;6.83;;;5.33;;
3916;SDS011;1973;50.518;7.318;2023-04-15T06:03:41;6.90;;;4.63;;
3916;SDS011;1973;50.518;7.318;2023-04-15T06:06:08;8.53;;;4.10;;
3916;SDS011;1973;50.518;7.318;2023-04-15T06:08:35;6.17;;;3.83;;
3916;SDS011;1973;50.518;7.318;2023-04-15T06:11:01;5.27;;;2.83;;
3916;SDS011;1973;50.518;7.318;2023-04-15T06:13:28;7.53;;;4.00;;
3916;SDS011;1973;50.518;7.318;2023-04-15T06:15:54;6.20;;;3.60;;
3916;SDS011;1973;50.518;7.318;2023-04-15T06:18:21;5.30;;;3.60;;
3916;SDS011;1973;50.518;7.318;2023-04-15T06:20:47;7.40;;;3.80;;
3916;SDS011;1973;50.518;7.318;2023-04-15T06:23:14;6.17;;;3.70;;
3916;SDS011;1973;50.518;7.318;2023-04-15T06:25:40;6.73;;;3.93;;
3916;SDS011;1973;50.518;7.318;2023-04-15T06:28:07;7.20;;;3.50;;
3916;SDS011;1973;50.518;7.318;2023-04-15T06:30:33;5.10;;;3.87;;
3916;SDS011;1973;50.518;7.318;2023-04-15T06:33:01;8.83;;;3.80;;
3916;SDS011;1973;50.518;7.318;2023-04-15T06:35:30;7.90;;;3.90;;
3916;SDS011;1973;50.518;7.318;2023-04-15T06:37:57;5.63;;;3.63;;
3916;SDS011;1973;50.518;7.318;2023-04-15T06:40:23;5.73;;;3.27;;
3916;SDS011;1973;50.518;7.318;2023-04-15T06:42:50;4.37;;;2.97;;
3916;SDS011;1973;50.518;7.318;2023-04-15T06:45:16;5.00;;;3.60;;
3916;SDS011;1973;50.518;7.318;2023-04-15T06:47:43;5.10;;;3.43;;
3916;SDS011;1973;50.518;7.318;2023-04-15T06:50:09;6.00;;;3.70;;
3916;SDS011;1973;50.518;7.318;2023-04-15T06:52:36;11.47;;;4.80;;
3916;SDS011;1973;50.518;7.318;2023-04-15T06:55:03;5.40;;;3.87;;
3916;SDS011;1973;50.518;7.318;2023-04-15T06:57:30;10.67;;;4.17;;
3916;SDS011;1973;50.518;7.318;2023-04-15T07:00:00;3.77;;;2.97;;
3916;SDS011;1973;50.518;7.318;2023-04-15T07:02:26;6.53;;;3.60;;
3916;SDS011;1973;50.518;7.318;2023-04-15T07:04:53;5.00;;;3.73;;
3916;SDS011;1973;50.518;7.318;2023-04-15T07:07:20;6.73;;;3.53;;
3916;SDS011;1973;50.518;7.318;2023-04-15T07:09:47;8.70;;;3.40;;
3916;SDS011;1973;50.518;7.318;2023-04-15T07:12:13;9.80;;;3.80;;
3916;SDS011;1973;50.518;7.318;2023-04-15T07:14:40;5.87;;;3.20;;
3916;SDS011;1973;50.518;7.318;2023-04-15T07:17:07;4.13;;;3.20;;
3916;SDS011;1973;50.518;7.318;2023-04-15T07:19:34;6.70;;;3.93;;
3916;SDS011;1973;50.518;7.318;2023-04-15T07:22:01;7.00;;;3.90;;
3916;SDS011;1973;50.518;7.318;2023-04-15T07:24:27;7.00;;;3.93;;
3916;SDS011;1973;50.518;7.318;2023-04-15T07:26:54;8.40;;;3.73;;
3916;SDS011;1973;50.518;7.318;2023-04-15T07:29:25;7.50;;;4.10;;
3916;SDS011;1973;50.518;7.318;2023-04-15T07:31:52;6.03;;;3.30;;
3916;SDS011;1973;50.518;7.318;2023-04-15T07:34:18;4.80;;;3.30;;
3916;SDS011;1973;50.518;7.318;2023-04-15T07:36:45;4.53;;;3.03;;
3916;SDS011;1973;50.518;7.318;2023-04-15T07:39:15;7.07;;;3.63;;
3916;SDS011;1973;50.518;7.318;2023-04-15T07:41:42;9.50;;;3.70;;
3916;SDS011;1973;50.518;7.318;2023-04-15T07:44:09;4.80;;;3.73;;
3916;SDS011;1973;50.518;7.318;2023-04-15T07:46:36;6.40;;;3.50;;
3916;SDS011;1973;50.518;7.318;2023-04-15T07:49:03;5.97;;;3.30;;
3916;SDS011;1973;50.518;7.318;2023-04-15T07:51:30;5.90;;;3.30;;
3916;SDS011;1973;50.518;7.318;2023-04-15T07:53:57;5.27;;;3.87;;
3916;SDS011;1973;50.518;7.318;2023-04-15T07:56:24;14.27;;;3.90;;
3916;SDS011;1973;50.518;7.318;2023-04-15T07:58:51;6.53;;;3.90;;
3916;SDS011;1973;50.518;7.318;2023-04-15T08:01:18;5.63;;;3.30;;
3916;SDS011;1973;50.518;7.318;2023-04-15T08:03:44;6.73;;;3.70;;
3916;SDS011;1973;50.518;7.318;2023-04-15T08:06:11;4.97;;;3.40;;
3916;SDS011;1973;50.518;7.318;2023-04-15T08:08:38;3.97;;;2.63;;
3916;SDS011;1973;50.518;7.318;2023-04-15T08:11:04;3.87;;;2.53;;
3916;SDS011;1973;50.518;7.318;2023-04-15T08:13:31;5.97;;;3.27;;
3916;SDS011;1973;50.518;7.318;2023-04-15T08:16:14;6.47;;;2.87;;
3916;SDS011;1973;50.518;7.318;2023-04-15T08:18:51;3.90;;;2.80;;
3916;SDS011;1973;50.518;7.318;2023-04-15T08:21:19;5.77;;;3.37;;
3916;SDS011;1973;50.518;7.318;2023-04-15T08:23:46;8.00;;;4.50;;
3916;SDS011;1973;50.518;7.318;2023-04-15T08:26:15;6.47;;;3.17;;
3916;SDS011;1973;50.518;7.318;2023-04-15T08:28:43;5.27;;;3.13;;
3916;SDS011;1973;50.518;7.318;2023-04-15T08:31:11;4.80;;;2.30;;
3916;SDS011;1973;50.518;7.318;2023-04-15T08:33:39;7.57;;;2.37;;
3916;SDS011;1973;50.518;7.318;2023-04-15T08:36:05;7.77;;;3.47;;
3916;SDS011;1973;50.518;7.318;2023-04-15T08:38:32;6.43;;;3.10;;
3916;SDS011;1973;50.518;7.318;2023-04-15T08:41:00;9.40;;;3.30;;
3916;SDS011;1973;50.518;7.318;2023-04-15T08:43:32;7.47;;;3.17;;
3916;SDS011;1973;50.518;7.318;2023-04-15T08:46:00;5.00;;;3.10;;
3916;SDS011;1973;50.518;7.318;2023-04-15T08:48:27;8.13;;;2.97;;
3916;SDS011;1973;50.518;7.318;2023-04-15T08:50:54;4.23;;;3.20;;
3916;SDS011;1973;50.518;7.318;2023-04-15T08:53:21;7.57;;;4.70;;
3916;SDS011;1973;50.518;7.318;2023-04-15T08:55:50;6.90;;;4.67;;
3916;SDS011;1973;50.518;7.318;2023-04-15T08:58:18;6.33;;;3.97;;
3916;SDS011;1973;50.518;7.318;2023-04-15T09:00:45;5.10;;;3.50;;
3916;SDS011;1973;50.518;7.318;2023-04-15T09:03:11;5.00;;;3.43;;
3916;SDS011;1973;50.518;7.318;2023-04-15T09:05:38;4.30;;;3.73;;
3916;SDS011;1973;50.518;7.318;2023-04-15T09:08:05;5.93;;;3.87;;
3916;SDS011;1973;50.518;7.318;2023-04-15T09:10:32;8.07;;;3.57;;
3916;SDS011;1973;50.518;7.318;2023-04-15T09:12:59;6.13;;;3.53;;
3916;SDS011;1973;50.518;7.318;2023-04-15T09:15:27;7.83;;;3.60;;
3916;SDS011;1973;50.518;7.318;2023-04-15T09:17:55;6.03;;;3.80;;
3916;SDS011;1973;50.518;7.318;2023-04-15T09:20:22;6.10;;;3.80;;
3916;SDS011;1973;50.518;7.318;2023-04-15T09:22:49;4.87;;;3.80;;
3916;SDS011;1973;50.518;7.318;2023-04-15T09:27:53;5.60;;;2.73;;
3916;SDS011;1973;50.518;7.318;2023-04-15T09:30:21;4.80;;;2.80;;
3916;SDS011;1973;50.518;7.318;2023-04-15T09:35:19;2.90;;;2.40;;
3916;SDS011;1973;50.518;7.318;2023-04-15T09:37:50;4.63;;;2.60;;
3916;SDS011;1973;50.518;7.318;2023-04-15T09:40:36;5.63;;;2.53;;
3916;SDS011;1973;50.518;7.318;2023-04-15T09:43:04;9.00;;;3.67;;
3916;SDS011;1973;50.518;7.318;2023-04-15T09:45:32;7.23;;;4.60;;
3916;SDS011;1973;50.518;7.318;2023-04-15T09:48:22;11.47;;;8.60;;
3916;SDS011;1973;50.518;7.318;2023-04-15T09:50:49;8.50;;;5.70;;
3916;SDS011;1973;50.518;7.318;2023-04-15T09:53:19;9.37;;;6.47;;
3916;SDS011;1973;50.518;7.318;2023-04-15T09:55:50;5.27;;;4.40;;
3916;SDS011;1973;50.518;7.318;2023-04-15T09:58:20;4.70;;;4.20;;
3916;SDS011;1973;50.518;7.318;2023-04-15T10:00:49;12.07;;;6.40;;
3916;SDS011;1973;50.518;7.318;2023-04-15T10:03:18;7.13;;;5.47;;
3916;SDS011;1973;50.518;7.318;2023-04-15T10:05:48;6.73;;;5.83;;
3916;SDS011;1973;50.518;7.318;2023-04-15T10:08:17;8.40;;;5.33;;
3916;SDS011;1973;50.518;7.318;2023-04-15T10:10:45;6.23;;;4.10;;
3916;SDS011;1973;50.518;7.318;2023-04-15T10:13:16;4.17;;;3.23;;
3916;SDS011;1973;50.518;7.318;2023-04-15T10:15:45;4.10;;;2.50;;
3916;SDS011;1973;50.518;7.318;2023-04-15T10:18:18;3.97;;;2.40;;
3916;SDS011;1973;50.518;7.318;2023-04-15T10:20:47;3.87;;;1.70;;
3916;SDS011;1973;50.518;7.318;2023-04-15T10:23:14;2.43;;;1.90;;
3916;SDS011;1973;50.518;7.318;2023-04-15T10:25:41;3.93;;;1.90;;
3916;SDS011;1973;50.518;7.318;2023-04-15T10:28:08;2.90;;;1.93;;
3916;SDS011;1973;50.518;7.318;2023-04-15T10:30:35;4.13;;;2.20;;
3916;SDS011;1973;50.518;7.318;2023-04-15T10:33:02;2.40;;;2.07;;
3916;SDS011;1973;50.518;7.318;2023-04-15T10:35:31;5.30;;;2.37;;
3916;SDS011;1973;50.518;7.318;2023-04-15T10:37:59;3.50;;;2.10;;
3916;SDS011;1973;50.518;7.318;2023-04-15T10:40:27;3.00;;;1.67;;
3916;SDS011;1973;50.518;7.318;2023-04-15T10:42:57;2.00;;;1.53;;
3916;SDS011;1973;50.518;7.318;2023-04-15T10:45:31;2.37;;;1.20;;
3916;SDS011;1973;50.518;7.318;2023-04-15T10:48:00;5.33;;;1.80;;
3916;SDS011;1973;50.518;7.318;2023-04-15T10:50:32;3.37;;;1.70;;
3916;SDS011;1973;50.518;7.318;2023-04-15T10:53:01;3.83;;;2.07;;
3916;SDS011;1973;50.518;7.318;2023-04-15T10:55:33;4.87;;;3.13;;
3916;SDS011;1973;50.518;7.318;2023-04-15T10:58:00;1.83;;;1.70;;
3916;SDS011;1973;50.518;7.318;2023-04-15T11:00:28;3.23;;;2.53;;
3916;SDS011;1973;50.518;7.318;2023-04-15T11:08:10;3.27;;;1.87;;
3916;SDS011;1973;50.518;7.318;2023-04-15T11:13:04;2.43;;;1.47;;
3916;SDS011;1973;50.518;7.318;2023-04-15T11:18:11;1.93;;;1.20;;
3916;SDS011;1973;50.518;7.318;2023-04-15T11:20:44;3.13;;;1.37;;
3916;SDS011;1973;50.518;7.318;2023-04-15T11:23:13;3.20;;;1.60;;
3916;SDS011;1973;50.518;7.318;2023-04-15T11:25:41;2.43;;;1.47;;
3916;SDS011;1973;50.518;7.318;2023-04-15T11:28:10;3.40;;;1.80;;
3916;SDS011;1973;50.518;7.318;2023-04-15T11:30:37;3.20;;;1.63;;
3916;SDS011;1973;50.518;7.318;2023-04-15T11:33:05;2.60;;;1.30;;
3916;SDS011;1973;50.518;7.318;2023-04-15T11:35:33;1.80;;;1.27;;
3916;SDS011;1973;50.518;7.318;2023-04-15T11:38:04;2.30;;;1.40;;
3916;SDS011;1973;50.518;7.318;2023-04-15T11:40:33;2.80;;;1.30;;
3916;SDS011;1973;50.518;7.318;2023-04-15T11:45:35;2.03;;;1.60;;
3916;SDS011;1973;50.518;7.318;2023-04-15T11:50:34;2.20;;;1.80;;
3916;SDS011;1973;50.518;7.318;2023-04-15T11:53:02;2.63;;;1.50;;
3916;SDS011;1973;50.518;7.318;2023-04-15T11:55:43;1.97;;;1.70;;
3916;SDS011;1973;50.518;7.318;2023-04-15T11:58:17;2.73;;;1.67;;
3916;SDS011;1973;50.518;7.318;2023-04-15T12:00:55;2.57;;;1.87;;
3916;SDS011;1973;50.518;7.318;2023-04-15T12:03:27;2.40;;;1.93;;
3916;SDS011;1973;50.518;7.318;2023-04-15T12:11:26;3.07;;;2.50;;
3916;SDS011;1973;50.518;7.318;2023-04-15T12:16:35;3.40;;;2.33;;
3916;SDS011;1973;50.518;7.318;2023-04-15T12:19:16;3.00;;;2.43;;
3916;SDS011;1973;50.518;7.318;2023-04-15T12:21:47;5.60;;;2.77;;
3916;SDS011;1973;50.518;7.318;2023-04-15T12:24:14;2.40;;;2.20;;
3916;SDS011;1973;50.518;7.318;2023-04-15T12:26:47;2.40;;;2.20;;
3916;SDS011;1973;50.518;7.318;2023-04-15T12:29:15;2.37;;;2.10;;
3916;SDS011;1973;50.518;7.318;2023-04-15T12:31:46;2.43;;;2.23;;
3916;SDS011;1973;50.518;7.318;2023-04-15T12:34:14;2.80;;;2.43;;
3916;SDS011;1973;50.518;7.318;2023-04-15T12:36:40;2.47;;;2.27;;
3916;SDS011;1973;50.518;7.318;2023-04-15T12:39:07;6.07;;;2.27;;
3916;SDS011;1973;50.518;7.318;2023-04-15T12:41:34;2.67;;;2.47;;
3916;SDS011;1973;50.518;7.318;2023-04-15T12:44:00;2.23;;;2.03;;
3916;SDS011;1973;50.518;7.318;2023-04-15T12:46:27;2.63;;;2.10;;
3916;SDS011;1973;50.518;7.318;2023-04-15T12:48:54;1.83;;;1.73;;
3916;SDS011;1973;50.518;7.318;2023-04-15T12:51:22;2.43;;;2.00;;
3916;SDS011;1973;50.518;7.318;2023-04-15T12:53:50;2.60;;;2.00;;
3916;SDS011;1973;50.518;7.318;2023-04-15T12:56:16;3.00;;;2.17;;
3916;SDS011;1973;50.518;7.318;2023-04-15T12:58:43;2.50;;;2.20;;
3916;SDS011;1973;50.518;7.318;2023-04-15T13:01:09;3.63;;;2.40;;
3916;SDS011;1973;50.518;7.318;2023-04-15T13:03:36;2.43;;;2.23;;
3916;SDS011;1973;50.518;7.318;2023-04-15T13:06:03;2.50;;;2.30;;
3916;SDS011;1973;50.518;7.318;2023-04-15T13:08:30;2.67;;;2.47;;
3916;SDS011;1973;50.518;7.318;2023-04-15T13:10:57;3.90;;;3.50;;
3916;SDS011;1973;50.518;7.318;2023-04-15T13:13:23;3.63;;;2.87;;
3916;SDS011;1973;50.518;7.318;2023-04-15T13:15:50;3.70;;;3.40;;
3916;SDS011;1973;50.518;7.318;2023-04-15T13:18:17;3.20;;;2.97;;
3916;SDS011;1973;50.518;7.318;2023-04-15T13:20:43;3.90;;;3.20;;
3916;SDS011;1973;50.518;7.318;2023-04-15T13:23:10;3.50;;;3.20;;
3916;SDS011;1973;50.518;7.318;2023-04-15T13:25:36;4.37;;;3.20;;
3916;SDS011;1973;50.518;7.318;2023-04-15T13:28:03;3.80;;;3.10;;
3916;SDS011;1973;50.518;7.318;2023-04-15T13:30:29;3.77;;;3.40;;
3916;SDS011;1973;50.518;7.318;2023-04-15T13:32:56;3.70;;;3.30;;
3916;SDS011;1973;50.518;7.318;2023-04-15T13:35:23;3.60;;;3.30;;
3916;SDS011;1973;50.518;7.318;2023-04-15T13:37:50;2.93;;;2.63;;
3916;SDS011;1973;50.518;7.318;2023-04-15T13:40:16;2.40;;;2.20;;
3916;SDS011;1973;50.518;7.318;2023-04-15T13:42:43;2.77;;;2.57;;
3916;SDS011;1973;50.518;7.318;2023-04-15T13:45:09;3.27;;;3.03;;
3916;SDS011;1973;50.518;7.318;2023-04-15T13:47:36;3.70;;;2.80;;
3916;SDS011;1973;50.518;7.318;2023-04-15T13:50:03;3.10;;;2.80;;
3916;SDS011;1973;50.518;7.318;2023-04-15T13:52:30;3.57;;;3.00;;
3916;SDS011;1973;50.518;7.318;2023-04-15T13:54:57;3.43;;;3.10;;
3916;SDS011;1973;50.518;7.318;2023-04-15T13:57:43;3.27;;;3.07;;
3916;SDS011;1973;50.518;7.318;2023-04-15T14:00:10;4.07;;;3.60;;
3916;SDS011;1973;50.518;7.318;2023-04-15T14:02:39;3.67;;;3.30;;
3916;SDS011;1973;50.518;7.318;2023-04-15T14:05:06;3.17;;;2.90;;
3916;SDS011;1973;50.518;7.318;2023-04-15T14:07:33;4.00;;;2.90;;
3916;SDS011;1973;50.518;7.318;2023-04-15T14:10:00;3.53;;;3.23;;
3916;SDS011;1973;50.518;7.318;2023-04-15T14:12:26;3.80;;;3.17;;
3916;SDS011;1973;50.518;7.318;2023-04-15T14:14:53;3.30;;;3.10;;
3916;SDS011;1973;50.518;7.318;2023-04-15T14:17:19;3.53;;;3.23;;
3916;SDS011;1973;50.518;7.318;2023-04-15T14:19:46;4.03;;;3.63;;
3916;SDS011;1973;50.518;7.318;2023-04-15T14:22:12;5.20;;;3.67;;
3916;SDS011;1973;50.518;7.318;2023-04-15T14:24:39;4.40;;;4.00;;
3916;SDS011;1973;50.518;7.318;2023-04-15T14:27:05;6.47;;;4.13;;
3916;SDS011;1973;50.518;7.318;2023-04-15T14:29:33;3.80;;;3.50;;
3916;SDS011;1973;50.518;7.318;2023-04-15T14:32:00;4.20;;;3.40;;
3916;SDS011;1973;50.518;7.318;2023-04-15T14:34:36;4.73;;;3.90;;
3916;SDS011;1973;50.518;7.318;2023-04-15T14:37:02;4.20;;;3.90;;
3916;SDS011;1973;50.518;7.318;2023-04-15T14:39:29;4.33;;;4.00;;
3916;SDS011;1973;50.518;7.318;2023-04-15T14:41:55;4.63;;;4.23;;
3916;SDS011;1973;50.518;7.318;2023-04-15T14:44:22;4.93;;;4.43;;
3916;SDS011;1973;50.518;7.318;2023-04-15T14:46:49;4.80;;;4.40;;
3916;SDS011;1973;50.518;7.318;2023-04-15T14:49:16;4.90;;;4.50;;
3916;SDS011;1973;50.518;7.318;2023-04-15T14:51:43;5.90;;;5.40;;
3916;SDS011;1973;50.518;7.318;2023-04-15T14:54:09;6.00;;;5.50;;
3916;SDS011;1973;50.518;7.318;2023-04-15T14:56:36;5.70;;;5.27;;
3916;SDS011;1973;50.518;7.318;2023-04-15T14:59:02;5.80;;;5.30;;
3916;SDS011;1973;50.518;7.318;2023-04-15T15:01:29;5.20;;;4.80;;
3916;SDS011;1973;50.518;7.318;2023-04-15T15:03:56;6.70;;;6.10;;
3916;SDS011;1973;50.518;7.318;2023-04-15T15:06:22;6.70;;;5.90;;
3916;SDS011;1973;50.518;7.318;2023-04-15T15:08:49;6.50;;;5.90;;
3916;SDS011;1973;50.518;7.318;2023-04-15T15:11:15;6.90;;;6.30;;
3916;SDS011;1973;50.518;7.318;2023-04-15T15:13:42;7.57;;;6.33;;
3916;SDS011;1973;50.518;7.318;2023-04-15T15:16:08;7.07;;;6.47;;
3916;SDS011;1973;50.518;7.318;2023-04-15T15:18:38;7.30;;;6.67;;
3916;SDS011;1973;50.518;7.318;2023-04-15T15:21:04;6.60;;;6.00;;
3916;SDS011;1973;50.518;7.318;2023-04-15T15:23:31;6.53;;;5.90;;
3916;SDS011;1973;50.518;7.318;2023-04-15T15:25:57;8.37;;;7.60;;
3916;SDS011;1973;50.518;7.318;2023-04-15T15:28:24;6.70;;;6.20;;
3916;SDS011;1973;50.518;7.318;2023-04-15T15:30:50;8.20;;;7.50;;
3916;SDS011;1973;50.518;7.318;2023-04-15T15:33:17;7.53;;;6.70;;
3916;SDS011;1973;50.518;7.318;2023-04-15T15:35:43;7.10;;;6.47;;
3916;SDS011;1973;50.518;7.318;2023-04-15T15:38:10;8.13;;;6.20;;
3916;SDS011;1973;50.518;7.318;2023-04-15T15:40:37;8.33;;;7.47;;
3916;SDS011;1973;50.518;7.318;2023-04-15T15:43:04;7.37;;;6.67;;
3916;SDS011;1973;50.518;7.318;2023-04-15T15:45:30;7.07;;;6.47;;
3916;SDS011;1973;50.518;7.318;2023-04-15T15:47:57;7.53;;;6.93;;